Latest Observation

42 Stations

15 Minute Data | America/Los_Angeles
as of 5/7/26 11:14 PM PDT
Station Date Time Temp (°F) RH (%) Dew Pt (°F) Wind Spd (mph) Wind Dir (°) Wind Gust (mph) Latest Rain (In) Daily Rain (In) Daily Min Temp (°F) Daily Max Temp (°F) Daily Max Wind (mph)
Elk Mt. Farm 5/7/26 2300 50.2   3.9 - - - - - - - 44.8   9.1 83.9   5.4 -
Upper Lake 5/7/26 2300 51.6   7.0 89   4 48.6   5.7 0.9 NW | 316 2.0   3.4 0.00 0.00 44.6   8.7 83.5   4.6 14.0   0.0
Scotts Valley 5/7/26 2300 48.5   4.7 82   9 43.2   7.4 0.0 SSE | 164 0.7   0.2 0.00 0.00 41.6   11.0 84.2   3.0 13.0   0.2
Scotts Valley-South (Bella Vista) 5/7/26 2300 54.7   1.1 61   24 41.5   9.8 1.1 SSE | 160 2.8   0.0 0.00 0.00 46.1   7.2 82.7   3.2 14.5   0.5
Kelseyville 5/7/26 2300 55.9   0.6 82   3 50.4   1.6 2.2 SSW | 201 3.9   2.0 0.00 0.00 44.9   10.2 84.3   4.6 15.6   2.2
Kelseyville Remote 5/7/26 2300 55.9   1.4 74   4 47.6   3.0 - - - 0.00 0.00 46.2   9.5 84.4   4.7 -
Kelseyville (Clark Drive) 5/7/26 2300 53.6   1.3 - - - - - 0.00 0.00 45.7   9.0 84.7   4.8 -
Kelsey Bench (Oaklea) 5/7/26 2300 57.7   0.2 81   1 51.8   0.6 0.0 S | 172 3.7   3.7 0.00 0.00 48.3   5.3 81.8   3.2 15.4   1.0
Smith Lane (Kelseyville-South) 5/7/26 2300 53.9   1.9 89   0 50.7   1.7 2.5 SSE | 152 3.8   1.1 0.00 0.00 45.7   9.2 83.2   3.3 14.9   0.6
Bell Hill-West 5/7/26 2300 54.6   0.0 99   1 54.3   0.3 1.3 SSW | 197 2.7   0.0 0.00 0.00 46.4   7.7 82.0   3.6 15.2   1.3
High Valley Ridgeline (Brassfield) 5/7/26 2300 60.4   2.0 57   22 45.1   6.8 9.2 W | 262 12.1   1.3 0.00 0.00 55.4   3.9 79.0   4.8 17.8   3.0
Wight Way (Adobe Creek) 5/7/26 2300 52.4   0.9 93   1 50.4   0.5 1.1 SSE | 156 2.8   0.5 0.00 0.00 43.9   9.3 84.2   3.9 14.6   1.3
Ridgeline Top (Brassfield) 5/7/26 2300 59.9   2.3 - - - - - - - 55.5   4.0 80.8   5.6 -
Ridgeline Low (Brassfield) 5/7/26 2300 61.6   1.9 - - - - - - - 52.2   1.1 80.0   4.3 -
Long Valley (Shannon) 5/7/26 2300 53.7   1.0 87   7 49.8   3.0 1.2 ESE | 105 3.6   2.5 0.00 0.00 46.1   8.5 84.1   4.6 12.0   3.4
High Valley Winery 5/7/26 2300 59.2   5.5 59   31 45.0   6.1 2.0 NW | 306 4.3   0.8 0.00 0.00 44.0   9.5 80.7   4.1 16.1   2.6
Round Mtn Rd. 5/7/26 2245 61.3   1.6 - - - - - - - 50.2   3.8 81.5   5.6 -
Circle O 5/7/26 2300 56.0   2.0 - - - - - - - 46.4   6.5 81.6   5.8 -
Robertsbridge Vineyards 5/7/26 2300 52.2   0.6 91   2 49.8   0.2 - - - - - 45.6   6.9 84.7   4.3 -
Urgency Vineyard 5/7/26 2300 58.3   2.5 73   1 49.9   2.8 4.7 SW | 235 6.6   0.1 0.00 0.00 43.8   9.4 82.2   4.1 12.7   2.3
Red Hills (Beckstoffer) 5/7/26 2300 61.6   0.3 66   8 50.4   3.0 - - - 0.00 0.00 40.9   12.4 82.9   4.7 -
Winters (Shannon) 5/7/26 2300 61.3   2.4 58   7 46.6   5.4 2.7 SW | 234 5.9   3.7 0.00 0.00 41.2   11.2 80.1   4.4 14.0   1.8
Secret Pond (Shannon) 5/7/26 2300 61.0   6.1 59   24 46.5   3.5 4.6 WNW | 295 7.7   5.4 0.00 0.00 43.7   8.4 81.1   5.3 12.5   2.9
Rolling Knolls (Shannon) 5/7/26 2300 59.8   5.8 70   17 50.1   0.3 2.7 WSW | 257 5.0   0.2 0.00 0.00 45.1   8.9 82.6   4.1 10.6   1.9
Lower Lake 5/7/26 2300 63.4   5.0 63   20 50.5   2.5 3.2 W | 262 6.9   3.5 0.00 0.00 50.7   3.4 81.4   2.7 14.1   0.6
Adamson Ranch 5/7/26 2300 55.0   1.5 95   0 53.6   1.5 0.5 WSW | 246 2.0   0.7 0.00 0.00 45.4   8.1 83.7   3.5 8.8   2.0
Middletown (Diamond D) 5/7/26 2300 60.0   2.0 88   1 56.6   2.4 3.6 ENE | 74 5.7   1.6 0.00 0.00 47.0   8.8 81.9   5.6 16.1   0.5
Middletown-West (Domaine Helena) 5/7/26 2300 54.8   1.2 96   0 53.6   1.3 1.7 WSW | 248 3.2   0.3 0.00 0.00 42.8   9.6 80.8   4.6 19.5   0.7
Middletown-South 5/7/26 2300 56.3   1.8 94   0 54.6   1.6 1.8 SW | 226 2.4   0.2 0.00 0.00 47.4   6.6 81.5   5.6 16.9   0.7
Jim Davis (Langtry) 5/7/26 2300 61.7   1.0 87   2 57.9   1.4 0.2 NW | 320 1.1   3.1 0.00 0.00 50.4   5.0 81.0   3.8 15.1   3.2
Napa Valley Basin 5/7/26 2300 55.9   0.9 94   4 54.2   0.2 1.0 WSW | 242 1.9   0.3 0.00 0.00 47.6   8.6 82.7   4.0 14.2   2.2
Lower Bohn 5/7/26 2300 53.2   0.6 97   0 52.5   0.5 1.5 NNE | 22 4.5   2.5 0.00 0.00 43.7   8.3 82.0   1.6 12.3   1.1
Upper Bohn-North 5/7/26 2300 59.0   2.0 92   12 56.7   2.0 0.4 W | 280 1.3   5.0 0.00 0.00 49.8   5.7 82.8   2.9 13.5   4.5
Snell Peak Blk#9 5/7/26 2300 60.2   2.9 92   1 57.7   2.6 0.6 SSW | 206 2.0   0.3 0.00 0.00 51.7   3.6 81.8   3.4 13.1   2.2
Coyote Lake West 5/7/26 2300 60.1   1.0 88   8 56.7   1.8 0.5 WSW | 252 1.3   2.0 0.00 0.00 50.8   5.3 81.7   3.4 11.8   0.2
Coyote Lake Northeast 5/7/26 2300 62.2   1.9 84   2 57.3   2.5 - - - - - 51.8   4.4 82.3   3.9 -
Coyote Lake East 5/7/26 2300 57.8   1.3 94   0 56.0   1.4 - - - - - 48.3   8.2 82.3   3.6 -
Morgan Valley 5/7/26 2300 62.9   1.3 71   11 53.2   2.8 7.0 WNW | 298 10.7   5.8 0.00 0.00 55.5   4.5 76.5   3.1 12.9   1.5
Mine Pit North 5/7/26 2300 61.8   2.7 80   7 55.6   0.5 1.6 WSW | 250 6.0   1.5 - - 52.7   0.6 80.3   5.8 15.3   0.0
Mine Pit South 5/7/26 2300 64.1   4.9 75   9 56.0   1.8 1.5 ESE | 122 3.7   6.3 0.00 0.00 55.1   3.8 79.7   2.6 15.6   3.4
Cow Mountain 5/7/26 2300 61.1   2.8 - - 10.9 WNW | 291 13.4   0.9 0.00 0.00 55.1   7.7 71.0   5.1 23.9   1.3
Ukiah-SE (Ruddick) 5/7/26 2300 55.9   1.7 74   4 47.8   3.2 4.4 NNW | 340 8.0   3.0 0.00 0.00 46.9   7.6 85.4   4.4 16.2   1.2
Max     64.1 99 57.9 10.9 - 13.4 0.00 0.00 55.5 85.4 23.9
Avg     57.6 81 51.5 2.5 - 4.6 0.00 - - - -
Min     48.5 57 41.5 0.0 - 0.7 0.00 0.00 40.9 71.0 8.8